sensor_id;sensor_type;location;lat;lon;timestamp;temperature;humidity
63202;DHT22;49296;48.188;11.566;2023-05-07T00:01:12;16.61;68.79
63202;DHT22;49296;48.188;11.566;2023-05-07T00:03:40;16.61;68.96
63202;DHT22;49296;48.188;11.566;2023-05-07T00:06:07;16.67;69.04
63202;DHT22;49296;48.188;11.566;2023-05-07T00:08:33;16.64;69.09
63202;DHT22;49296;48.188;11.566;2023-05-07T00:11:00;16.55;69.26
63202;DHT22;49296;48.188;11.566;2023-05-07T00:13:27;16.53;69.45
63202;DHT22;49296;48.188;11.566;2023-05-07T00:15:56;16.45;69.54
63202;DHT22;49296;48.188;11.566;2023-05-07T00:18:22;16.49;69.41
63202;DHT22;49296;48.188;11.566;2023-05-07T00:20:50;16.48;69.41
63202;DHT22;49296;48.188;11.566;2023-05-07T00:23:17;16.46;69.54
63202;DHT22;49296;48.188;11.566;2023-05-07T00:25:43;16.46;69.66
63202;DHT22;49296;48.188;11.566;2023-05-07T00:28:13;16.42;69.58
63202;DHT22;49296;48.188;11.566;2023-05-07T00:30:45;16.43;69.57
63202;DHT22;49296;48.188;11.566;2023-05-07T00:33:12;16.42;69.59
63202;DHT22;49296;48.188;11.566;2023-05-07T00:35:38;16.46;69.52
63202;DHT22;49296;48.188;11.566;2023-05-07T00:38:06;16.38;69.74
63202;DHT22;49296;48.188;11.566;2023-05-07T00:40:33;16.38;69.78
63202;DHT22;49296;48.188;11.566;2023-05-07T00:43:00;16.41;69.76
63202;DHT22;49296;48.188;11.566;2023-05-07T00:45:27;16.42;69.82
63202;DHT22;49296;48.188;11.566;2023-05-07T00:47:54;16.38;70.01
63202;DHT22;49296;48.188;11.566;2023-05-07T00:50:21;16.42;69.98
63202;DHT22;49296;48.188;11.566;2023-05-07T00:52:48;16.42;70.06
63202;DHT22;49296;48.188;11.566;2023-05-07T00:55:16;16.36;70.18
63202;DHT22;49296;48.188;11.566;2023-05-07T00:57:44;16.35;70.20
63202;DHT22;49296;48.188;11.566;2023-05-07T01:00:12;16.28;70.46
63202;DHT22;49296;48.188;11.566;2023-05-07T01:02:39;16.32;70.25
63202;DHT22;49296;48.188;11.566;2023-05-07T01:05:08;16.35;70.15
63202;DHT22;49296;48.188;11.566;2023-05-07T01:07:36;16.33;70.38
63202;DHT22;49296;48.188;11.566;2023-05-07T01:10:04;16.35;70.27
63202;DHT22;49296;48.188;11.566;2023-05-07T01:12:33;16.39;70.06
63202;DHT22;49296;48.188;11.566;2023-05-07T01:15:00;16.33;70.22
63202;DHT22;49296;48.188;11.566;2023-05-07T01:17:27;16.33;70.24
63202;DHT22;49296;48.188;11.566;2023-05-07T01:19:54;16.29;70.36
63202;DHT22;49296;48.188;11.566;2023-05-07T01:22:29;16.29;70.28
63202;DHT22;49296;48.188;11.566;2023-05-07T01:24:57;16.25;70.23
63202;DHT22;49296;48.188;11.566;2023-05-07T01:27:24;16.21;70.30
63202;DHT22;49296;48.188;11.566;2023-05-07T01:29:51;16.14;70.57
63202;DHT22;49296;48.188;11.566;2023-05-07T01:32:21;16.09;71.09
63202;DHT22;49296;48.188;11.566;2023-05-07T01:34:51;16.04;71.17
63202;DHT22;49296;48.188;11.566;2023-05-07T01:37:19;16.09;71.14
63202;DHT22;49296;48.188;11.566;2023-05-07T01:39:48;16.09;71.06
63202;DHT22;49296;48.188;11.566;2023-05-07T01:42:15;16.11;71.06
63202;DHT22;49296;48.188;11.566;2023-05-07T01:44:41;16.07;71.13
63202;DHT22;49296;48.188;11.566;2023-05-07T01:47:08;16.15;70.90
63202;DHT22;49296;48.188;11.566;2023-05-07T01:49:35;16.07;70.97
63202;DHT22;49296;48.188;11.566;2023-05-07T01:52:01;16.11;70.86
63202;DHT22;49296;48.188;11.566;2023-05-07T01:54:28;16.02;71.21
63202;DHT22;49296;48.188;11.566;2023-05-07T01:56:57;16.01;71.24
63202;DHT22;49296;48.188;11.566;2023-05-07T01:59:23;16.09;71.06
63202;DHT22;49296;48.188;11.566;2023-05-07T02:01:50;16.02;71.21
63202;DHT22;49296;48.188;11.566;2023-05-07T02:04:17;16.02;71.22
63202;DHT22;49296;48.188;11.566;2023-05-07T02:06:43;15.97;71.22
63202;DHT22;49296;48.188;11.566;2023-05-07T02:09:10;15.97;71.22
63202;DHT22;49296;48.188;11.566;2023-05-07T02:11:37;16.00;71.12
63202;DHT22;49296;48.188;11.566;2023-05-07T02:14:05;15.96;71.16
63202;DHT22;49296;48.188;11.566;2023-05-07T02:16:31;15.96;71.29
63202;DHT22;49296;48.188;11.566;2023-05-07T02:18:58;15.83;71.32
63202;DHT22;49296;48.188;11.566;2023-05-07T02:21:25;15.80;71.35
63202;DHT22;49296;48.188;11.566;2023-05-07T02:23:51;15.73;71.73
63202;DHT22;49296;48.188;11.566;2023-05-07T02:26:18;15.70;71.84
63202;DHT22;49296;48.188;11.566;2023-05-07T02:28:45;15.67;71.97
63202;DHT22;49296;48.188;11.566;2023-05-07T02:31:12;15.70;71.80
63202;DHT22;49296;48.188;11.566;2023-05-07T02:33:39;15.74;71.78
63202;DHT22;49296;48.188;11.566;2023-05-07T02:36:07;15.76;71.75
63202;DHT22;49296;48.188;11.566;2023-05-07T02:38:34;15.70;71.83
63202;DHT22;49296;48.188;11.566;2023-05-07T02:41:00;15.71;71.89
63202;DHT22;49296;48.188;11.566;2023-05-07T02:43:27;15.71;71.92
63202;DHT22;49296;48.188;11.566;2023-05-07T02:46:00;15.62;72.13
63202;DHT22;49296;48.188;11.566;2023-05-07T02:48:28;15.55;72.46
63202;DHT22;49296;48.188;11.566;2023-05-07T02:50:55;15.55;72.44
63202;DHT22;49296;48.188;11.566;2023-05-07T02:53:21;15.56;72.48
63202;DHT22;49296;48.188;11.566;2023-05-07T02:55:50;15.56;72.47
63202;DHT22;49296;48.188;11.566;2023-05-07T02:58:17;15.53;72.53
63202;DHT22;49296;48.188;11.566;2023-05-07T03:00:43;15.53;72.55
63202;DHT22;49296;48.188;11.566;2023-05-07T03:03:10;15.49;72.63
63202;DHT22;49296;48.188;11.566;2023-05-07T03:05:38;15.47;72.63
63202;DHT22;49296;48.188;11.566;2023-05-07T03:08:05;15.50;72.62
63202;DHT22;49296;48.188;11.566;2023-05-07T03:10:31;15.52;72.68
63202;DHT22;49296;48.188;11.566;2023-05-07T03:12:58;15.52;72.54
63202;DHT22;49296;48.188;11.566;2023-05-07T03:15:25;15.50;72.58
63202;DHT22;49296;48.188;11.566;2023-05-07T03:17:51;15.45;72.82
63202;DHT22;49296;48.188;11.566;2023-05-07T03:20:18;15.50;72.63
63202;DHT22;49296;48.188;11.566;2023-05-07T03:22:46;15.35;73.08
63202;DHT22;49296;48.188;11.566;2023-05-07T03:25:13;15.31;73.27
63202;DHT22;49296;48.188;11.566;2023-05-07T03:27:40;15.40;72.93
63202;DHT22;49296;48.188;11.566;2023-05-07T03:30:08;15.43;72.75
63202;DHT22;49296;48.188;11.566;2023-05-07T03:32:35;15.39;72.86
63202;DHT22;49296;48.188;11.566;2023-05-07T03:35:02;15.45;72.59
63202;DHT22;49296;48.188;11.566;2023-05-07T03:37:29;15.49;72.47
63202;DHT22;49296;48.188;11.566;2023-05-07T03:39:57;15.50;72.47
63202;DHT22;49296;48.188;11.566;2023-05-07T03:42:23;15.46;72.62
63202;DHT22;49296;48.188;11.566;2023-05-07T03:44:50;15.45;72.70
63202;DHT22;49296;48.188;11.566;2023-05-07T03:47:17;15.43;72.79
63202;DHT22;49296;48.188;11.566;2023-05-07T03:49:43;15.40;72.85
63202;DHT22;49296;48.188;11.566;2023-05-07T03:52:10;15.39;72.89
63202;DHT22;49296;48.188;11.566;2023-05-07T03:54:36;15.34;73.13
63202;DHT22;49296;48.188;11.566;2023-05-07T03:57:04;15.32;73.15
63202;DHT22;49296;48.188;11.566;2023-05-07T03:59:31;15.35;73.03
63202;DHT22;49296;48.188;11.566;2023-05-07T04:01:58;15.34;72.99
63202;DHT22;49296;48.188;11.566;2023-05-07T04:04:25;15.35;72.94
63202;DHT22;49296;48.188;11.566;2023-05-07T04:06:51;15.36;72.90
63202;DHT22;49296;48.188;11.566;2023-05-07T04:09:18;15.29;73.01
63202;DHT22;49296;48.188;11.566;2023-05-07T04:11:45;15.31;72.97
63202;DHT22;49296;48.188;11.566;2023-05-07T04:14:13;15.32;73.10
63202;DHT22;49296;48.188;11.566;2023-05-07T04:16:39;15.35;72.97
63202;DHT22;49296;48.188;11.566;2023-05-07T04:19:06;15.32;73.00
63202;DHT22;49296;48.188;11.566;2023-05-07T04:21:33;15.27;73.18
63202;DHT22;49296;48.188;11.566;2023-05-07T04:24:00;15.25;73.30
63202;DHT22;49296;48.188;11.566;2023-05-07T04:26:26;15.27;73.44
63202;DHT22;49296;48.188;11.566;2023-05-07T04:28:53;15.18;73.65
63202;DHT22;49296;48.188;11.566;2023-05-07T04:31:21;15.22;73.50
63202;DHT22;49296;48.188;11.566;2023-05-07T04:33:48;15.27;73.35
63202;DHT22;49296;48.188;11.566;2023-05-07T04:36:16;15.29;73.41
63202;DHT22;49296;48.188;11.566;2023-05-07T04:38:42;15.31;73.46
63202;DHT22;49296;48.188;11.566;2023-05-07T04:41:12;15.34;73.52
63202;DHT22;49296;48.188;11.566;2023-05-07T04:43:39;15.32;73.43
63202;DHT22;49296;48.188;11.566;2023-05-07T04:46:07;15.35;73.37
63202;DHT22;49296;48.188;11.566;2023-05-07T04:48:35;15.34;73.48
63202;DHT22;49296;48.188;11.566;2023-05-07T04:51:01;15.36;73.29
63202;DHT22;49296;48.188;11.566;2023-05-07T04:53:28;15.40;73.24
63202;DHT22;49296;48.188;11.566;2023-05-07T04:55:55;15.35;73.35
63202;DHT22;49296;48.188;11.566;2023-05-07T04:58:23;15.43;73.35
63202;DHT22;49296;48.188;11.566;2023-05-07T05:00:49;15.47;73.37
63202;DHT22;49296;48.188;11.566;2023-05-07T05:03:16;15.46;73.31
63202;DHT22;49296;48.188;11.566;2023-05-07T05:05:44;15.46;73.34
63202;DHT22;49296;48.188;11.566;2023-05-07T05:08:10;15.55;73.09
63202;DHT22;49296;48.188;11.566;2023-05-07T05:10:37;15.63;72.96
63202;DHT22;49296;48.188;11.566;2023-05-07T05:13:03;15.63;72.75
63202;DHT22;49296;48.188;11.566;2023-05-07T05:15:33;15.67;72.78
63202;DHT22;49296;48.188;11.566;2023-05-07T05:18:00;15.69;72.84
63202;DHT22;49296;48.188;11.566;2023-05-07T05:20:26;15.64;73.12
63202;DHT22;49296;48.188;11.566;2023-05-07T05:22:54;15.73;72.90
63202;DHT22;49296;48.188;11.566;2023-05-07T05:25:21;15.76;72.63
63202;DHT22;49296;48.188;11.566;2023-05-07T05:27:47;15.80;72.59
63202;DHT22;49296;48.188;11.566;2023-05-07T05:30:14;15.87;72.47
63202;DHT22;49296;48.188;11.566;2023-05-07T05:32:40;15.83;72.69
63202;DHT22;49296;48.188;11.566;2023-05-07T05:35:08;15.81;72.54
63202;DHT22;49296;48.188;11.566;2023-05-07T05:37:34;15.71;73.01
63202;DHT22;49296;48.188;11.566;2023-05-07T05:40:03;15.74;72.95
63202;DHT22;49296;48.188;11.566;2023-05-07T05:42:30;15.80;72.82
63202;DHT22;49296;48.188;11.566;2023-05-07T05:44:56;15.87;72.59
63202;DHT22;49296;48.188;11.566;2023-05-07T05:47:23;15.91;72.15
63202;DHT22;49296;48.188;11.566;2023-05-07T05:49:49;15.94;72.14
63202;DHT22;49296;48.188;11.566;2023-05-07T05:52:16;15.86;72.61
63202;DHT22;49296;48.188;11.566;2023-05-07T05:54:43;15.88;72.57
63202;DHT22;49296;48.188;11.566;2023-05-07T05:57:11;15.86;72.76
63202;DHT22;49296;48.188;11.566;2023-05-07T05:59:37;15.93;72.48
63202;DHT22;49296;48.188;11.566;2023-05-07T06:02:04;15.91;72.25
63202;DHT22;49296;48.188;11.566;2023-05-07T06:04:31;16.00;72.03
63202;DHT22;49296;48.188;11.566;2023-05-07T06:06:57;16.07;71.98
63202;DHT22;49296;48.188;11.566;2023-05-07T06:09:24;16.07;71.99
63202;DHT22;49296;48.188;11.566;2023-05-07T06:11:51;16.19;71.59
63202;DHT22;49296;48.188;11.566;2023-05-07T06:14:19;16.18;71.50
63202;DHT22;49296;48.188;11.566;2023-05-07T06:16:45;16.28;71.18
63202;DHT22;49296;48.188;11.566;2023-05-07T06:19:12;16.29;71.17
63202;DHT22;49296;48.188;11.566;2023-05-07T06:21:39;16.24;71.41
63202;DHT22;49296;48.188;11.566;2023-05-07T06:24:06;16.30;71.28
63202;DHT22;49296;48.188;11.566;2023-05-07T06:26:33;16.33;71.11
63202;DHT22;49296;48.188;11.566;2023-05-07T06:28:59;16.28;71.62
63202;DHT22;49296;48.188;11.566;2023-05-07T06:31:29;16.32;71.60
63202;DHT22;49296;48.188;11.566;2023-05-07T06:33:57;16.32;71.71
63202;DHT22;49296;48.188;11.566;2023-05-07T06:36:24;16.41;71.46
63202;DHT22;49296;48.188;11.566;2023-05-07T06:38:51;16.50;70.90
63202;DHT22;49296;48.188;11.566;2023-05-07T06:41:18;16.55;70.76
63202;DHT22;49296;48.188;11.566;2023-05-07T06:43:45;16.60;70.90
63202;DHT22;49296;48.188;11.566;2023-05-07T06:46:12;16.70;70.44
63202;DHT22;49296;48.188;11.566;2023-05-07T06:48:40;16.64;70.72
63202;DHT22;49296;48.188;11.566;2023-05-07T06:51:06;16.71;70.53
63202;DHT22;49296;48.188;11.566;2023-05-07T06:53:33;16.78;70.01
63202;DHT22;49296;48.188;11.566;2023-05-07T06:56:01;16.87;69.44
63202;DHT22;49296;48.188;11.566;2023-05-07T06:58:28;16.88;69.24
63202;DHT22;49296;48.188;11.566;2023-05-07T07:00:54;16.92;69.37
63202;DHT22;49296;48.188;11.566;2023-05-07T07:03:21;16.95;69.36
63202;DHT22;49296;48.188;11.566;2023-05-07T07:05:51;17.01;69.66
63202;DHT22;49296;48.188;11.566;2023-05-07T07:08:18;17.05;69.44
63202;DHT22;49296;48.188;11.566;2023-05-07T07:10:46;16.98;69.11
63202;DHT22;49296;48.188;11.566;2023-05-07T07:13:13;16.95;69.02
63202;DHT22;49296;48.188;11.566;2023-05-07T07:15:39;16.98;69.00
63202;DHT22;49296;48.188;11.566;2023-05-07T07:18:06;17.07;68.93
63202;DHT22;49296;48.188;11.566;2023-05-07T07:20:33;17.18;68.65
63202;DHT22;49296;48.188;11.566;2023-05-07T07:23:01;17.19;68.82
63202;DHT22;49296;48.188;11.566;2023-05-07T07:25:27;17.23;68.91
63202;DHT22;49296;48.188;11.566;2023-05-07T07:27:54;17.32;68.82
63202;DHT22;49296;48.188;11.566;2023-05-07T07:30:21;17.39;68.90
63202;DHT22;49296;48.188;11.566;2023-05-07T07:32:47;17.47;67.59
63202;DHT22;49296;48.188;11.566;2023-05-07T07:35:14;17.50;67.67
63202;DHT22;49296;48.188;11.566;2023-05-07T07:37:41;17.51;68.37
63202;DHT22;49296;48.188;11.566;2023-05-07T07:40:11;17.59;68.75
63202;DHT22;49296;48.188;11.566;2023-05-07T07:42:37;17.60;68.97
63202;DHT22;49296;48.188;11.566;2023-05-07T07:45:05;17.62;69.00
63202;DHT22;49296;48.188;11.566;2023-05-07T07:47:32;17.67;69.00
63202;DHT22;49296;48.188;11.566;2023-05-07T07:49:59;17.64;68.91
63202;DHT22;49296;48.188;11.566;2023-05-07T07:52:25;17.66;68.72
63202;DHT22;49296;48.188;11.566;2023-05-07T07:54:52;17.71;68.51
63202;DHT22;49296;48.188;11.566;2023-05-07T07:57:20;17.84;67.59
63202;DHT22;49296;48.188;11.566;2023-05-07T07:59:46;17.88;67.17
63202;DHT22;49296;48.188;11.566;2023-05-07T08:02:13;17.92;67.10
63202;DHT22;49296;48.188;11.566;2023-05-07T08:04:39;17.92;67.25
63202;DHT22;49296;48.188;11.566;2023-05-07T08:07:07;18.00;67.70
63202;DHT22;49296;48.188;11.566;2023-05-07T08:09:33;18.02;66.99
63202;DHT22;49296;48.188;11.566;2023-05-07T08:12:01;18.02;65.91
63202;DHT22;49296;48.188;11.566;2023-05-07T08:14:29;18.06;65.98
63202;DHT22;49296;48.188;11.566;2023-05-07T08:16:55;18.15;66.67
63202;DHT22;49296;48.188;11.566;2023-05-07T08:19:22;18.24;66.92
63202;DHT22;49296;48.188;11.566;2023-05-07T08:21:49;18.32;67.07
63202;DHT22;49296;48.188;11.566;2023-05-07T08:24:16;18.35;66.99
63202;DHT22;49296;48.188;11.566;2023-05-07T08:26:43;18.37;66.79
63202;DHT22;49296;48.188;11.566;2023-05-07T08:29:10;18.37;66.38
63202;DHT22;49296;48.188;11.566;2023-05-07T08:31:38;18.42;65.70
63202;DHT22;49296;48.188;11.566;2023-05-07T08:34:13;18.49;66.10
63202;DHT22;49296;48.188;11.566;2023-05-07T08:36:40;18.54;66.74
63202;DHT22;49296;48.188;11.566;2023-05-07T08:39:07;18.64;66.70
63202;DHT22;49296;48.188;11.566;2023-05-07T08:41:34;18.75;66.98
63202;DHT22;49296;48.188;11.566;2023-05-07T08:44:03;18.71;66.16
63202;DHT22;49296;48.188;11.566;2023-05-07T08:46:32;18.72;65.88
63202;DHT22;49296;48.188;11.566;2023-05-07T08:49:00;18.77;65.81
63202;DHT22;49296;48.188;11.566;2023-05-07T08:51:27;18.83;65.92
63202;DHT22;49296;48.188;11.566;2023-05-07T08:53:54;18.85;65.89
63202;DHT22;49296;48.188;11.566;2023-05-07T08:56:20;18.92;66.22
63202;DHT22;49296;48.188;11.566;2023-05-07T08:58:47;18.91;65.10
63202;DHT22;49296;48.188;11.566;2023-05-07T09:01:16;18.99;64.64
63202;DHT22;49296;48.188;11.566;2023-05-07T09:03:46;18.97;64.33
63202;DHT22;49296;48.188;11.566;2023-05-07T09:06:15;19.01;63.47
63202;DHT22;49296;48.188;11.566;2023-05-07T09:08:48;19.02;61.65
63202;DHT22;49296;48.188;11.566;2023-05-07T09:11:15;19.09;62.10
63202;DHT22;49296;48.188;11.566;2023-05-07T09:13:42;19.11;62.76
63202;DHT22;49296;48.188;11.566;2023-05-07T09:16:10;19.18;63.11
63202;DHT22;49296;48.188;11.566;2023-05-07T09:18:40;19.23;62.26
63202;DHT22;49296;48.188;11.566;2023-05-07T09:21:09;19.29;61.30
63202;DHT22;49296;48.188;11.566;2023-05-07T09:23:38;19.39;62.52
63202;DHT22;49296;48.188;11.566;2023-05-07T09:26:04;19.43;62.16
63202;DHT22;49296;48.188;11.566;2023-05-07T09:28:33;19.49;60.55
63202;DHT22;49296;48.188;11.566;2023-05-07T09:31:00;19.45;60.13
63202;DHT22;49296;48.188;11.566;2023-05-07T09:33:27;19.46;60.60
63202;DHT22;49296;48.188;11.566;2023-05-07T09:35:54;19.53;61.30
63202;DHT22;49296;48.188;11.566;2023-05-07T09:38:23;19.54;60.43
63202;DHT22;49296;48.188;11.566;2023-05-07T09:41:01;19.61;61.20
63202;DHT22;49296;48.188;11.566;2023-05-07T09:43:32;19.67;60.26
63202;DHT22;49296;48.188;11.566;2023-05-07T09:46:02;19.68;59.17
63202;DHT22;49296;48.188;11.566;2023-05-07T09:48:29;19.77;59.38
63202;DHT22;49296;48.188;11.566;2023-05-07T09:50:57;19.91;59.55
63202;DHT22;49296;48.188;11.566;2023-05-07T09:53:25;19.98;59.92
63202;DHT22;49296;48.188;11.566;2023-05-07T09:55:51;20.06;59.34
63202;DHT22;49296;48.188;11.566;2023-05-07T09:58:21;20.15;57.96
63202;DHT22;49296;48.188;11.566;2023-05-07T10:00:49;20.19;57.41
63202;DHT22;49296;48.188;11.566;2023-05-07T10:03:17;20.22;56.72
63202;DHT22;49296;48.188;11.566;2023-05-07T10:05:46;20.19;56.03
63202;DHT22;49296;48.188;11.566;2023-05-07T10:08:14;20.23;55.61
63202;DHT22;49296;48.188;11.566;2023-05-07T10:10:42;20.25;54.76
63202;DHT22;49296;48.188;11.566;2023-05-07T10:13:09;20.30;54.93
63202;DHT22;49296;48.188;11.566;2023-05-07T10:15:38;20.41;55.79
63202;DHT22;49296;48.188;11.566;2023-05-07T10:18:06;20.44;54.24
63202;DHT22;49296;48.188;11.566;2023-05-07T10:20:33;20.41;56.06
63202;DHT22;49296;48.188;11.566;2023-05-07T10:23:04;20.46;55.25
63202;DHT22;49296;48.188;11.566;2023-05-07T10:25:31;20.50;54.65
63202;DHT22;49296;48.188;11.566;2023-05-07T10:28:02;20.58;55.05
63202;DHT22;49296;48.188;11.566;2023-05-07T10:30:44;20.58;50.87
63202;DHT22;49296;48.188;11.566;2023-05-07T10:33:16;20.56;50.23
63202;DHT22;49296;48.188;11.566;2023-05-07T10:35:46;20.61;51.55
63202;DHT22;49296;48.188;11.566;2023-05-07T10:38:13;20.60;53.10
63202;DHT22;49296;48.188;11.566;2023-05-07T10:40:40;20.64;52.12
63202;DHT22;49296;48.188;11.566;2023-05-07T10:43:07;20.73;53.74
63202;DHT22;49296;48.188;11.566;2023-05-07T10:45:33;20.82;55.08
63202;DHT22;49296;48.188;11.566;2023-05-07T10:48:07;20.81;52.22
63202;DHT22;49296;48.188;11.566;2023-05-07T10:50:34;20.94;54.38
63202;DHT22;49296;48.188;11.566;2023-05-07T10:53:20;21.00;54.23
63202;DHT22;49296;48.188;11.566;2023-05-07T10:55:50;21.00;54.06
63202;DHT22;49296;48.188;11.566;2023-05-07T10:58:22;21.09;55.06
63202;DHT22;49296;48.188;11.566;2023-05-07T11:00:50;21.03;53.08
63202;DHT22;49296;48.188;11.566;2023-05-07T11:03:19;21.05;51.81
63202;DHT22;49296;48.188;11.566;2023-05-07T11:06:08;21.05;52.08
63202;DHT22;49296;48.188;11.566;2023-05-07T11:08:53;21.09;53.54
63202;DHT22;49296;48.188;11.566;2023-05-07T11:11:45;21.13;54.74
63202;DHT22;49296;48.188;11.566;2023-05-07T11:14:43;21.22;54.79
63202;DHT22;49296;48.188;11.566;2023-05-07T11:17:11;21.32;53.96
63202;DHT22;49296;48.188;11.566;2023-05-07T11:19:52;21.36;52.47
63202;DHT22;49296;48.188;11.566;2023-05-07T11:22:37;21.44;53.01
63202;DHT22;49296;48.188;11.566;2023-05-07T11:25:06;21.43;51.96
63202;DHT22;49296;48.188;11.566;2023-05-07T11:27:33;21.54;53.28
63202;DHT22;49296;48.188;11.566;2023-05-07T11:30:00;21.62;53.78
63202;DHT22;49296;48.188;11.566;2023-05-07T11:32:28;21.67;54.73
63202;DHT22;49296;48.188;11.566;2023-05-07T11:34:58;21.78;53.60
63202;DHT22;49296;48.188;11.566;2023-05-07T11:37:26;21.81;52.18
63202;DHT22;49296;48.188;11.566;2023-05-07T11:40:02;21.78;52.16
63202;DHT22;49296;48.188;11.566;2023-05-07T11:42:32;21.81;52.58
63202;DHT22;49296;48.188;11.566;2023-05-07T11:44:59;21.89;51.77
63202;DHT22;49296;48.188;11.566;2023-05-07T11:47:26;21.87;51.82
63202;DHT22;49296;48.188;11.566;2023-05-07T11:49:53;21.94;51.90
63202;DHT22;49296;48.188;11.566;2023-05-07T11:52:22;22.02;51.55
63202;DHT22;49296;48.188;11.566;2023-05-07T11:54:50;22.19;51.65
63202;DHT22;49296;48.188;11.566;2023-05-07T11:57:17;22.32;52.09
63202;DHT22;49296;48.188;11.566;2023-05-07T11:59:43;22.43;52.22
63202;DHT22;49296;48.188;11.566;2023-05-07T12:02:13;22.54;51.80
63202;DHT22;49296;48.188;11.566;2023-05-07T12:04:40;22.51;51.61
63202;DHT22;49296;48.188;11.566;2023-05-07T12:07:11;22.54;51.76
63202;DHT22;49296;48.188;11.566;2023-05-07T12:09:40;22.67;50.84
63202;DHT22;49296;48.188;11.566;2023-05-07T12:12:07;22.67;48.60
63202;DHT22;49296;48.188;11.566;2023-05-07T12:14:37;22.60;49.40
63202;DHT22;49296;48.188;11.566;2023-05-07T12:17:04;22.64;50.00
63202;DHT22;49296;48.188;11.566;2023-05-07T12:19:31;22.69;49.70
63202;DHT22;49296;48.188;11.566;2023-05-07T12:21:58;22.72;47.97
63202;DHT22;49296;48.188;11.566;2023-05-07T12:24:24;22.81;48.27
63202;DHT22;49296;48.188;11.566;2023-05-07T12:26:53;22.98;50.53
63202;DHT22;49296;48.188;11.566;2023-05-07T12:29:21;23.16;49.27
63202;DHT22;49296;48.188;11.566;2023-05-07T12:35:09;23.29;49.66
63202;DHT22;49296;48.188;11.566;2023-05-07T12:37:40;23.24;48.89
63202;DHT22;49296;48.188;11.566;2023-05-07T12:40:09;23.46;48.06
63202;DHT22;49296;48.188;11.566;2023-05-07T12:42:41;23.31;46.89
63202;DHT22;49296;48.188;11.566;2023-05-07T12:45:10;23.53;46.91
63202;DHT22;49296;48.188;11.566;2023-05-07T12:47:37;23.49;49.25
63202;DHT22;49296;48.188;11.566;2023-05-07T12:50:05;23.67;48.97
63202;DHT22;49296;48.188;11.566;2023-05-07T12:52:33;23.72;46.43
63202;DHT22;49296;48.188;11.566;2023-05-07T12:55:04;23.77;45.91
63202;DHT22;49296;48.188;11.566;2023-05-07T12:57:39;23.82;46.50
63202;DHT22;49296;48.188;11.566;2023-05-07T13:00:07;23.77;47.29
63202;DHT22;49296;48.188;11.566;2023-05-07T13:02:34;23.94;46.34
63202;DHT22;49296;48.188;11.566;2023-05-07T13:05:01;24.06;44.84
63202;DHT22;49296;48.188;11.566;2023-05-07T13:07:27;24.15;45.28
63202;DHT22;49296;48.188;11.566;2023-05-07T13:09:54;24.15;45.55
63202;DHT22;49296;48.188;11.566;2023-05-07T13:12:21;24.10;45.47
63202;DHT22;49296;48.188;11.566;2023-05-07T13:15:03;24.32;44.86
63202;DHT22;49296;48.188;11.566;2023-05-07T13:17:30;24.08;44.71
63202;DHT22;49296;48.188;11.566;2023-05-07T13:19:57;24.08;44.79
63202;DHT22;49296;48.188;11.566;2023-05-07T13:22:23;24.09;44.66
63202;DHT22;49296;48.188;11.566;2023-05-07T13:24:50;23.99;43.84
63202;DHT22;49296;48.188;11.566;2023-05-07T13:27:17;23.86;44.37
63202;DHT22;49296;48.188;11.566;2023-05-07T13:29:44;23.81;46.51
63202;DHT22;49296;48.188;11.566;2023-05-07T13:32:12;23.86;46.89
63202;DHT22;49296;48.188;11.566;2023-05-07T13:34:39;24.20;46.11
63202;DHT22;49296;48.188;11.566;2023-05-07T13:37:06;24.53;45.09
63202;DHT22;49296;48.188;11.566;2023-05-07T13:39:34;24.71;45.12
63202;DHT22;49296;48.188;11.566;2023-05-07T13:42:00;24.69;45.37
63202;DHT22;49296;48.188;11.566;2023-05-07T13:44:27;24.53;45.21
63202;DHT22;49296;48.188;11.566;2023-05-07T13:46:54;24.44;45.93
63202;DHT22;49296;48.188;11.566;2023-05-07T13:49:22;24.43;46.08
63202;DHT22;49296;48.188;11.566;2023-05-07T13:51:49;24.41;45.54
63202;DHT22;49296;48.188;11.566;2023-05-07T13:54:16;24.44;45.52
63202;DHT22;49296;48.188;11.566;2023-05-07T13:56:43;24.47;46.30
63202;DHT22;49296;48.188;11.566;2023-05-07T13:59:09;24.34;46.63
63202;DHT22;49296;48.188;11.566;2023-05-07T14:01:37;24.27;46.40
63202;DHT22;49296;48.188;11.566;2023-05-07T14:04:04;24.16;46.40
63202;DHT22;49296;48.188;11.566;2023-05-07T14:06:32;24.20;46.40
63202;DHT22;49296;48.188;11.566;2023-05-07T14:08:59;24.29;46.38
63202;DHT22;49296;48.188;11.566;2023-05-07T14:11:26;23.99;47.11
63202;DHT22;49296;48.188;11.566;2023-05-07T14:13:53;24.09;47.15
63202;DHT22;49296;48.188;11.566;2023-05-07T14:16:19;24.26;47.17
63202;DHT22;49296;48.188;11.566;2023-05-07T14:18:46;24.46;46.51
63202;DHT22;49296;48.188;11.566;2023-05-07T14:21:13;24.33;47.00
63202;DHT22;49296;48.188;11.566;2023-05-07T14:23:42;24.13;46.74
63202;DHT22;49296;48.188;11.566;2023-05-07T14:26:08;24.04;47.05
63202;DHT22;49296;48.188;11.566;2023-05-07T14:28:35;23.75;47.99
63202;DHT22;49296;48.188;11.566;2023-05-07T14:31:04;23.57;48.19
63202;DHT22;49296;48.188;11.566;2023-05-07T14:33:31;23.55;48.35
63202;DHT22;49296;48.188;11.566;2023-05-07T14:35:58;23.58;48.53
63202;DHT22;49296;48.188;11.566;2023-05-07T14:38:25;23.58;48.46
63202;DHT22;49296;48.188;11.566;2023-05-07T14:40:54;23.67;48.21
63202;DHT22;49296;48.188;11.566;2023-05-07T14:43:21;23.61;48.39
63202;DHT22;49296;48.188;11.566;2023-05-07T14:45:48;23.64;47.84
63202;DHT22;49296;48.188;11.566;2023-05-07T14:48:15;23.49;48.60
63202;DHT22;49296;48.188;11.566;2023-05-07T14:50:43;23.43;48.24
63202;DHT22;49296;48.188;11.566;2023-05-07T14:53:10;23.24;49.30
63202;DHT22;49296;48.188;11.566;2023-05-07T14:55:37;23.24;49.37
63202;DHT22;49296;48.188;11.566;2023-05-07T14:58:05;23.24;49.07
63202;DHT22;49296;48.188;11.566;2023-05-07T15:00:33;23.09;49.70
63202;DHT22;49296;48.188;11.566;2023-05-07T15:03:05;23.08;49.36
63202;DHT22;49296;48.188;11.566;2023-05-07T15:05:32;22.98;48.84
63202;DHT22;49296;48.188;11.566;2023-05-07T15:07:59;22.99;48.91
63202;DHT22;49296;48.188;11.566;2023-05-07T15:10:26;22.87;49.47
63202;DHT22;49296;48.188;11.566;2023-05-07T15:12:53;22.78;49.63
63202;DHT22;49296;48.188;11.566;2023-05-07T15:15:21;22.72;49.79
63202;DHT22;49296;48.188;11.566;2023-05-07T15:17:48;22.81;49.62
63202;DHT22;49296;48.188;11.566;2023-05-07T15:20:15;22.85;49.27
63202;DHT22;49296;48.188;11.566;2023-05-07T15:22:42;22.81;48.88